Latest Weather Observations for Roma

IDQ60801

Issued at 10:42 pm EST Friday 15 November 2019 (issued every 10 minutes, with the page automatically refreshed every 10 minutes)

About weather observations | Map of weather stations | Latest weather observations for QLD | Other Formats
Station Details ID: 043091 Name: ROMA AIRPORT Lat: -26.55 Lon: 148.77 Height: 307.38 m
Data from the previous 72 hours. | See also: Recent months at Roma
Date/Time
EST
Temp
°C
App
Temp
°C
Dew
Point
°C
Rel
Hum
%
Delta-T
°C
Wind Press
QNH
hPa
Press
MSL
hPa
Rain since
9am
mm
Dir  Spd
km/h
Gust
km/h
Spd
kts
Gust
kts
15/10:30pm 25.2 22.3 -0.8 18 12.0 ENE 4 7 2 4 1014.1 1012.4 0.0
15/10:00pm 26.4 22.6 -0.6 17 12.6 ENE 9 13 5 7 1013.9 1012.2 0.0
15/09:30pm 26.1 22.3 -0.8 17 12.5 NE 9 13 5 7 1013.8 1012.1 0.0
15/09:00pm 28.7 23.7 -1.4 14 14.1 S 15 20 8 11 1013.1 1011.5 0.0
15/08:30pm 26.9 24.7 -1.9 15 13.2 CALM 0 7 0 4 1012.3 1010.7 0.0
15/08:00pm 27.9 24.7 -0.2 16 13.4 SE 6 7 3 4 1011.7 1010.0 0.0
15/07:30pm 28.2 24.4 -0.9 15 13.7 SSE 9 11 5 6 1011.3 1009.6 0.0
15/07:00pm 29.6 25.7 -1.7 13 14.7 S 9 11 5 6 1011.1 1009.4 0.0
15/06:30pm 31.3 26.6 -1.5 12 15.6 S 13 15 7 8 1010.8 1009.1 0.0
15/06:00pm 33.7 29.9 -0.8 11 16.9 SSE 9 13 5 7 1010.3 1008.6 0.0
15/05:30pm 34.4 30.1 -1.6 10 17.5 SE 11 17 6 9 1010.0 1008.4 0.0
15/05:00pm 35.2 30.6 -1.0 10 17.9 WSW 13 24 7 13 1009.9 1008.3 0.0
15/04:30pm 35.3 31.9 -0.9 10 17.9 NNW 7 15 4 8 1010.0 1008.4 0.0
15/04:00pm 35.2 31.4 -1.0 10 17.9 SE 9 15 5 8 1010.3 1008.6 0.0
15/03:30pm 35.4 30.5 -0.8 10 17.9 NNW 15 24 8 13 1010.4 1008.7 0.0
15/03:00pm 36.0 30.9 -1.8 9 18.5 NW 15 26 8 14 1010.7 1009.0 0.0
15/02:30pm 35.7 31.5 -0.6 10 18.1 S 11 26 6 14 1011.1 1009.4 0.0
15/02:00pm 35.5 30.2 -0.8 10 18.0 W 17 30 9 16 1011.6 1009.9 0.0
15/01:30pm 34.6 30.0 -1.4 10 17.6 NNW 13 22 7 12 1011.9 1010.2 0.0
15/01:00pm 33.4 29.9 -1.0 11 16.8 W 7 11 4 6 1012.5 1010.9 0.0
15/12:30pm 33.7 29.0 -2.1 10 17.2 NW 13 20 7 11 1013.1 1011.5 0.0
15/12:00pm 32.9 28.8 -2.7 10 16.8 ENE 9 15 5 8 1013.4 1011.8 0.0
15/11:30am 32.3 28.0 -4.6 9 16.8 NE 9 15 5 8 1014.1 1012.4 0.0
15/11:00am 31.5 27.5 -5.2 9 16.4 ESE 7 11 4 6 1014.7 1013.0 0.0
15/10:30am 30.0 25.7 -4.9 10 15.5 SSE 9 15 5 8 1015.3 1013.7 0.0
15/10:00am 28.8 23.9 -3.4 12 14.6 SE 13 19 7 10 1015.8 1014.2 0.0
15/09:30am 28.6 24.2 -2.5 13 14.3 ESE 11 22 6 12 1016.0 1014.4 0.0
15/09:00am 27.0 21.5 -1.8 15 13.2 ESE 17 22 9 12 1016.3 1014.7 0.0
15/08:30am 25.8 20.3 -1.9 16 12.6 SE 17 24 9 13 1016.4 1014.8 0.0
15/08:00am 24.5 20.0 -2.9 16 12.1 SE 11 17 6 9 1016.6 1015.0 0.0
15/07:30am 22.9 19.5 -5.1 15 11.7 NE 4 7 2 4 1016.7 1015.1 0.0
15/07:00am 18.9 15.0 -6.7 17 9.9 N 6 7 3 4 1016.9 1015.3 0.0
15/06:30am 16.2 12.7 -6.8 20 8.6 NNE 4 9 2 5 1016.7 1015.1 0.0
15/06:00am 13.3 9.4 -6.8 24 7.3 NNE 6 9 3 5 1016.2 1014.6 0.0
15/05:30am 10.2 7.2 -8.9 25 6.4 CALM 0 0 0 0 1015.6 1014.0 0.0
15/05:00am 10.1 6.7 -9.5 24 6.4 N 2 6 1 3 1015.3 1013.7 0.0
15/04:30am 10.3 4.9 -8.3 26 6.3 N 13 17 7 9 1015.1 1013.5 0.0
15/04:00am 11.3 7.5 -9.6 22 6.9 W 4 7 2 4 1014.4 1012.7 0.0
15/03:30am 10.8 7.8 -9.5 23 6.7 CALM 0 0 0 0 1014.3 1012.6 0.0
15/03:00am 11.1 6.9 -9.8 22 6.9 WSW 6 9 3 5 1014.2 1012.5 0.0
15/02:30am 11.5 8.5 -9.4 22 7.0 CALM 0 0 0 0 1014.1 1012.4 0.0
15/02:00am 12.0 7.8 -10.2 20 7.3 WSW 6 7 3 4 1014.1 1012.4 0.0
15/01:30am 14.3 11.0 -8.3 20 8.0 SW 2 9 1 5 1014.3 1012.6 0.0
15/01:00am 14.1 9.8 -8.5 20 8.0 SW 7 9 4 5 1014.3 1012.6 0.0
15/12:30am 15.9 10.8 -9.1 17 8.9 SSW 11 17 6 9 1014.4 1012.7 0.0
15/12:00am 17.5 14.6 -8.6 16 9.6 CALM 0 0 0 0 1014.7 1013.0 0.0
 
Date/Time
EST
Temp
°C
App
Temp
°C
Dew
Point
°C
Rel
Hum
%
Delta-T
°C
Wind Press
QNH
hPa
Press
MSL
hPa
Rain since
9am
mm
Dir  Spd
km/h
Gust
km/h
Spd
kts
Gust
kts
14/11:30pm 18.7 15.8 -7.6 16 10.0 CALM 0 0 0 0 1014.9 1013.2 0.0
14/11:00pm 19.1 16.2 -8.1 15 10.3 CALM 0 4 0 2 1014.9 1013.2 0.0
14/10:30pm 18.3 13.6 -8.7 15 10.0 SE 9 11 5 6 1014.9 1013.2 0.0
14/10:00pm 19.1 14.0 -9.0 14 10.4 SSE 11 13 6 7 1014.8 1013.1 0.0
14/09:30pm 20.8 15.4 -8.6 13 11.2 SSE 13 15 7 8 1014.6 1012.9 0.0
14/09:00pm 22.8 17.0 -8.1 12 12.1 S 15 17 8 9 1014.6 1012.9 0.0
14/08:30pm 23.1 17.3 -8.9 11 12.4 SSE 15 19 8 10 1014.4 1012.7 0.0
14/08:00pm 23.5 17.6 -9.8 10 12.8 S 15 17 8 9 1014.4 1012.7 0.0
14/07:30pm 23.0 17.4 -11.5 9 12.7 SSE 13 15 7 8 1014.2 1012.5 0.0
14/07:00pm 24.9 19.0 -10.1 9 13.5 S 15 19 8 10 1014.0 1012.3 0.0
14/06:30pm 27.0 21.4 -11.7 7 14.9 SSW 13 15 7 8 1013.7 1012.0 0.0
14/06:00pm 29.4 23.4 -11.9 6 16.2 SSW 15 20 8 11 1013.2 1011.6 0.0
14/05:30pm 30.3 24.7 -11.2 6 16.6 S 13 20 7 11 1012.8 1011.2 0.0
14/05:00pm 30.9 24.6 -10.8 6 16.9 SSW 17 26 9 14 1012.8 1011.2 0.0
14/04:30pm 31.5 26.5 -8.4 7 16.9 SW 11 20 6 11 1012.8 1011.2 0.0
14/04:00pm 31.6 25.1 -8.3 7 17.0 SSW 19 30 10 16 1012.7 1011.1 0.0
14/03:30pm 31.7 27.1 -8.3 7 17.0 SSW 9 17 5 9 1012.9 1011.3 0.0
14/03:00pm 31.3 25.1 -8.6 7 16.9 S 17 30 9 16 1013.1 1011.5 0.0
14/02:30pm 30.7 26.0 -9.0 7 16.6 S 9 22 5 12 1013.5 1011.9 0.0
14/02:00pm 30.5 24.7 -9.1 7 16.5 S 15 24 8 13 1014.1 1012.4 0.0
14/01:30pm 31.5 26.1 -8.4 7 16.9 S 13 24 7 13 1014.6 1012.9 0.0
14/01:00pm 29.9 23.8 -7.9 8 15.9 SSE 17 37 9 20 1015.2 1013.6 0.0
14/12:30pm 28.7 23.3 -8.8 8 15.4 S 13 22 7 12 1015.8 1014.2 0.0
14/12:00pm 28.2 23.3 -7.6 9 14.9 SE 11 19 6 10 1016.3 1014.7 0.0
14/11:30am 28.1 22.5 -6.3 10 14.7 ESE 15 22 8 12 1017.1 1015.4 0.0
14/11:00am 26.5 20.4 -7.6 10 14.0 SE 17 28 9 15 1017.5 1015.8 0.0
14/10:30am 25.4 20.6 -6.0 12 13.2 SE 11 20 6 11 1018.0 1016.4 0.0
14/10:00am 25.4 19.9 -5.0 13 13.0 SSE 15 24 8 13 1018.3 1016.7 0.0
14/09:30am 24.4 18.2 -4.8 14 12.4 SE 19 26 10 14 1018.6 1017.0 0.0
14/09:00am 23.6 16.9 -4.5 15 11.9 SSE 22 32 12 17 1018.7 1017.1 0.0
14/08:30am 23.0 16.6 -5.0 15 11.7 SE 20 26 11 14 1018.7 1017.1 0.0
14/08:00am 21.5 15.1 -4.5 17 10.8 SE 20 26 11 14 1018.7 1017.1 0.0
14/07:30am 20.5 14.7 -4.6 18 10.3 SE 17 22 9 12 1018.6 1017.0 0.0
14/07:00am 19.5 14.5 -4.7 19 9.8 SE 13 19 7 10 1018.4 1016.8 0.0
14/06:30am 16.3 13.5 -6.7 20 8.7 CALM 0 6 0 3 1018.0 1016.4 0.0
14/06:28am 16.1 13.3 -6.8 20 8.6 CALM 0 0 0 0 1018.0 1016.4 0.0
14/06:00am 11.1 7.8 -8.2 25 6.6 SW 2 6 1 3 1017.6 1015.9 0.0
14/05:30am 8.4 3.7 -9.0 28 5.6 SSW 9 11 5 6 1017.3 1015.6 0.0
14/05:00am 9.5 6.6 -8.5 27 6.0 CALM 0 0 0 0 1016.9 1015.3 0.0
14/04:30am 9.3 5.5 -9.7 25 6.1 SSW 4 7 2 4 1016.6 1015.0 0.0
14/04:00am 12.9 10.0 -7.7 23 7.3 CALM 0 0 0 0 1016.3 1014.7 0.0
14/03:30am 10.9 7.7 -11.8 19 7.1 CALM 0 0 0 0 1016.3 1014.7 0.0
14/03:00am 13.2 10.3 -8.6 21 7.6 CALM 0 0 0 0 1016.1 1014.5 0.0
14/02:30am 13.2 8.9 -9.2 20 7.7 SSW 7 11 4 6 1015.9 1014.3 0.0
14/02:00am 13.3 8.6 -9.2 20 7.7 SSW 9 11 5 6 1016.0 1014.4 0.0
14/01:30am 11.9 6.7 -10.3 20 7.3 SSW 11 13 6 7 1015.9 1014.3 0.0
14/01:00am 14.9 11.9 -9.2 18 8.5 CALM 0 4 0 2 1015.8 1014.2 0.0
14/12:30am 15.1 10.7 -9.7 17 8.6 S 7 7 4 4 1015.9 1014.3 0.0
14/12:00am 15.4 10.6 -10.3 16 8.9 SSW 9 11 5 6 1016.1 1014.5 0.0
 
Date/Time
EST
Temp
°C
App
Temp
°C
Dew
Point
°C
Rel
Hum
%
Delta-T
°C
Wind Press
QNH
hPa
Press
MSL
hPa
Rain since
9am
mm
Dir  Spd
km/h
Gust
km/h
Spd
kts
Gust
kts
13/11:30pm 16.0 11.2 -10.6 15 9.2 SSW 9 9 5 5 1016.2 1014.6 0.0
13/11:00pm 17.6 13.2 -10.2 14 9.9 S 7 11 4 6 1016.3 1014.7 0.0
13/10:30pm 18.2 13.4 -10.6 13 10.2 S 9 13 5 7 1016.4 1014.8 0.0
13/10:00pm 20.9 15.3 -10.6 11 11.5 S 13 17 7 9 1016.2 1014.6 0.0
13/09:30pm 21.8 15.4 -11.1 10 12.1 S 17 19 9 10 1015.8 1014.2 0.0
13/09:00pm 23.0 16.0 -11.5 9 12.7 S 20 26 11 14 1015.4 1013.8 0.0
13/08:30pm 23.2 16.8 -11.4 9 12.8 S 17 22 9 12 1014.8 1013.1 0.0
13/08:00pm 23.8 17.1 -10.9 9 13.1 S 19 24 10 13 1014.5 1012.8 0.0
13/07:30pm 24.5 17.7 -11.9 8 13.6 S 19 22 10 12 1014.1 1012.4 0.0
13/07:00pm 25.3 18.9 -11.3 8 13.9 S 17 20 9 11 1013.7 1012.0 0.0
13/06:30pm 26.7 20.3 -11.9 7 14.7 S 17 24 9 13 1013.2 1011.6 0.0
13/06:00pm 28.3 21.6 -10.7 7 15.4 S 19 26 10 14 1013.0 1011.4 0.0
13/05:30pm 29.1 22.2 -10.2 7 15.8 S 20 24 11 13 1012.8 1011.2 0.0
13/05:00pm 29.8 23.0 -9.7 7 16.2 SSW 20 30 11 16 1012.7 1011.1 0.0
13/04:30pm 30.2 23.4 -9.4 7 16.3 S 20 28 11 15 1012.6 1011.0 0.0
13/04:00pm 30.2 24.1 -7.7 8 16.1 S 17 28 9 15 1012.6 1011.0 0.0
13/03:30pm 30.4 23.9 -7.5 8 16.2 S 19 30 10 16 1012.7 1011.1 0.0
13/03:00pm 29.8 23.3 -6.4 9 15.7 S 20 32 11 17 1013.1 1011.5 0.0
13/02:30pm 31.2 24.9 -5.4 9 16.3 S 19 28 10 15 1013.2 1011.6 0.0
13/02:00pm 30.1 23.3 -4.8 10 15.6 SSW 22 32 12 17 1013.5 1011.9 0.0
13/01:30pm 31.0 24.9 -4.1 10 16.0 SW 19 30 10 16 1014.0 1012.3 0.0
13/01:00pm 29.1 23.3 -4.3 11 14.9 S 17 28 9 15 1014.5 1012.8 0.0
13/12:30pm 29.0 22.7 -4.4 11 14.9 SSW 20 30 11 16 1014.9 1013.2 0.0
13/12:00pm 28.5 23.2 -3.6 12 14.4 S 15 24 8 13 1015.3 1013.7 0.0
13/11:30am 27.4 21.1 -5.6 11 14.2 SSW 19 30 10 16 1015.6 1014.0 0.0
13/11:00am 27.5 21.3 -4.4 12 14.0 S 19 26 10 14 1016.3 1014.7 0.0
13/10:30am 27.4 21.7 -3.4 13 13.8 S 17 41 9 22 1016.5 1014.9 0.0
13/10:00am 26.6 20.5 -4.0 13 13.4 SSW 19 28 10 15 1016.7 1015.1 0.0
13/09:30am 26.1 20.0 -2.5 15 12.9 S 20 30 11 16 1016.8 1015.2 0.0
13/09:00am 24.7 17.8 -2.8 16 12.1 S 24 32 13 17 1016.8 1015.2 0.0
13/08:46am 24.8 18.0 -1.9 17 12.0 S 24 39 13 21 1016.8 1015.2 0.0
13/08:30am 24.8 18.1 -1.1 18 11.8 S 24 33 13 18 1016.6 1015.0 0.0
13/08:00am 24.1 16.8 -0.2 20 11.2 S 28 35 15 19 1016.3 1014.7 0.0
13/07:30am 23.2 16.4 0.9 23 10.5 S 26 33 14 18 1016.1 1014.5 0.0
13/07:00am 23.0 15.8 0.8 23 10.4 S 28 37 15 20 1015.6 1014.0 0.0
13/06:30am 22.9 16.9 1.3 24 10.2 S 22 32 12 17 1015.1 1013.5 0.0
13/06:00am 22.6 17.3 2.1 26 9.8 SSW 19 24 10 13 1014.6 1012.9 0.0
13/05:35am 21.6 16.5 0.8 25 9.6 SSW 17 20 9 11 1014.1 1012.4 0.0
13/05:30am 21.1 16.2 -0.2 24 9.6 SSW 15 20 8 11 1014.0 1012.3 0.0
13/05:00am 20.1 15.7 -2.3 22 9.6 SSW 11 17 6 9 1013.4 1011.8 0.0
13/04:30am 20.3 15.6 -2.1 22 9.7 SSW 13 19 7 10 1012.8 1011.2 0.0
13/04:00am 19.6 15.1 -3.3 21 9.6 SW 11 15 6 8 1012.3 1010.7 0.0
13/03:30am 21.2 15.6 -3.3 19 10.4 SW 17 19 9 10 1011.9 1010.2 0.0
13/03:00am 20.7 15.8 -3.0 20 10.1 WSW 13 15 7 8 1011.7 1010.0 0.0
13/02:30am 21.4 16.9 -3.1 19 10.5 WSW 11 13 6 7 1011.7 1010.0 0.0
13/02:00am 26.2 19.4 -1.6 16 12.7 SW 24 74 13 40 1011.4 1009.7 0.0
13/01:56am 26.7 20.2 0.4 18 12.5 WNW 24 74 13 40 1011.5 1009.8 0.0
13/01:55am 25.8 19.3 0.5 19 12.0 NW 24 74 13 40 1011.6 1009.9 0.0
13/01:53am 23.7 18.0 0.7 22 10.8 NNW 20 74 11 40 1011.3 1009.6 0.0
13/01:30am 21.7 17.4 0.8 25 9.7 NNE 13 20 7 11 1009.5 1007.9 0.0
13/01:00am 23.1 18.1 1.5 24 10.3 N 17 20 9 11 1009.8 1008.2 0.0
13/12:30am 23.5 18.9 1.8 24 10.4 NNE 15 19 8 10 1009.9 1008.3 0.0
13/12:00am 22.9 18.3 1.3 24 10.2 N 15 19 8 10 1010.3 1008.6 0.0
 
Date/Time
EST
Temp
°C
App
Temp
°C
Dew
Point
°C
Rel
Hum
%
Delta-T
°C
Wind Press
QNH
hPa
Press
MSL
hPa
Rain since
9am
mm
Dir  Spd
km/h
Gust
km/h
Spd
kts
Gust
kts
12/11:30pm 24.1 20.3 1.7 23 10.7 NNE 11 13 6 7 1010.6 1008.9 0.0
12/11:00pm 24.2 19.9 1.2 22 10.9 NNE 13 15 7 8 1010.8 1009.1 0.0

Other formats

Comma delimited format used in spreadsheet applications
http://www.bom.gov.au/fwo/IDQ60801/IDQ60801.94515.axf

JavaScript Object Notation format (JSON) in row-major order
http://www.bom.gov.au/fwo/IDQ60801/IDQ60801.94515.json

Data quality

Most of these data are generated automatically and are frequently updated. Quality checks on data are not normally performed. It is possible for incorrect values to appear. Refer to information at About Latest Weather Observations and please check the disclaimer before using these data.